Time;durP1;ratioP1;P1;durP2;ratioP2;P2;SDS_P1;SDS_P2;PMS_P1;PMS_P2;Temp;Humidity;BMP_temperature;BMP_pressure;BME280_temperature;BME280_humidity;BME280_pressure;Samples;Min_cycle;Max_cycle;Signal;HPM_P1;HPM_P2
2021/11/21 00:02:01;;;;;;;7.40;5.90;;;;;;;2.29;100.00;98753.56;5033890;28;20089;-58
2021/11/21 00:04:27;;;;;;;10.37;6.80;;;;;;;2.21;100.00;98748.38;5034244;28;20029;-58
2021/11/21 00:06:52;;;;;;;9.53;6.33;;;;;;;2.19;100.00;98751.72;5036378;28;20052;-59
2021/11/21 00:09:18;;;;;;;9.97;6.43;;;;;;;2.19;100.00;98754.22;5035533;28;20463;-59
2021/11/21 00:11:43;;;;;;;10.63;6.50;;;;;;;2.34;100.00;98753.59;5033759;28;20063;-59
2021/11/21 00:14:09;;;;;;;10.23;6.27;;;;;;;2.47;100.00;98737.78;5034309;28;20033;-59
2021/11/21 00:16:35;;;;;;;7.93;5.83;;;;;;;2.43;100.00;98726.78;5036378;28;20079;-60
2021/11/21 00:19:01;;;;;;;8.90;5.63;;;;;;;2.48;100.00;98742.88;5038908;28;20364;-57
2021/11/21 00:21:27;;;;;;;8.93;5.87;;;;;;;2.49;100.00;98733.63;5035905;28;20033;-58
2021/11/21 00:23:53;;;;;;;10.13;5.33;;;;;;;2.51;100.00;98726.88;5033137;28;20025;-59
2021/11/21 00:26:19;;;;;;;7.77;5.47;;;;;;;2.56;100.00;98726.13;5036559;28;20036;-59
2021/11/21 00:28:45;;;;;;;9.97;6.00;;;;;;;2.55;100.00;98724.41;5036041;28;20021;-59
2021/11/21 00:31:10;;;;;;;8.60;5.10;;;;;;;2.67;100.00;98726.28;5034970;28;20036;-57
2021/11/21 00:33:36;;;;;;;8.37;6.30;;;;;;;2.67;100.00;98719.53;5034733;28;20502;-60
2021/11/21 00:36:02;;;;;;;7.90;5.27;;;;;;;2.61;100.00;98709.34;5039047;28;20460;-58
2021/11/21 00:38:27;;;;;;;9.23;5.80;;;;;;;2.73;100.00;98706.09;5035385;28;20636;-57
2021/11/21 00:40:53;;;;;;;8.97;6.17;;;;;;;2.73;100.00;98706.97;5035001;28;20041;-59
2021/11/21 00:43:20;;;;;;;9.10;5.30;;;;;;;2.70;100.00;98704.41;5035771;28;20506;-55
2021/11/21 00:45:46;;;;;;;11.03;6.83;;;;;;;2.70;100.00;98699.34;5037176;28;20108;-57
2021/11/21 00:48:12;;;;;;;9.10;5.77;;;;;;;2.55;100.00;98695.72;5034919;28;20033;-58
2021/11/21 00:50:37;;;;;;;8.23;5.07;;;;;;;2.49;100.00;98694.00;5031112;28;20541;-58
2021/11/21 00:53:03;;;;;;;9.27;5.70;;;;;;;2.44;100.00;98687.16;5034266;28;20555;-59
2021/11/21 00:55:39;;;;;;;9.47;6.03;;;;;;;2.35;100.00;98680.28;5038678;28;20033;-59
2021/11/21 00:58:10;;;;;;;7.77;5.47;;;;;;;2.23;100.00;98680.13;5032691;28;20360;-58
2021/11/21 01:00:38;;;;;;;9.30;5.50;;;;;;;2.19;100.00;98674.16;5032792;28;20037;-58
2021/11/21 01:03:06;;;;;;;7.60;5.37;;;;;;;2.15;100.00;98676.63;5034706;28;20039;-59
2021/11/21 01:05:31;;;;;;;8.90;5.37;;;;;;;2.07;100.00;98668.06;5036927;28;20030;-54
2021/11/21 01:07:57;;;;;;;10.13;5.93;;;;;;;1.98;100.00;98667.94;5036651;28;20091;-58
2021/11/21 01:10:24;;;;;;;11.30;6.80;;;;;;;1.94;100.00;98663.66;5036673;28;20379;-59
2021/11/21 01:12:53;;;;;;;11.53;6.40;;;;;;;1.87;100.00;98654.28;5038864;28;20030;-57
2021/11/21 01:15:20;;;;;;;10.73;6.73;;;;;;;1.84;100.00;98655.94;5034371;28;20037;-57
2021/11/21 01:17:47;;;;;;;12.40;7.20;;;;;;;1.76;100.00;98651.56;5035525;28;20498;-59
2021/11/21 01:20:14;;;;;;;14.73;7.20;;;;;;;1.72;100.00;98653.22;5032454;28;20377;-59
2021/11/21 01:22:40;;;;;;;11.60;6.97;;;;;;;1.63;100.00;98640.41;5039473;28;20028;-54
2021/11/21 01:25:08;;;;;;;11.87;7.60;;;;;;;1.62;100.00;98643.75;5044018;28;20119;-60
2021/11/21 01:27:34;;;;;;;12.43;7.87;;;;;;;1.54;100.00;98635.22;5038361;28;20455;-59
2021/11/21 01:30:00;;;;;;;15.90;9.43;;;;;;;1.49;100.00;98631.75;5037833;28;20032;-56
2021/11/21 01:32:26;;;;;;;19.90;10.17;;;;;;;1.50;100.00;98635.13;5039331;28;20345;-59
2021/11/21 01:34:52;;;;;;;23.57;11.53;;;;;;;1.49;100.00;98636.81;5039642;28;20029;-57
2021/11/21 01:37:18;;;;;;;20.73;11.20;;;;;;;1.49;100.00;98636.81;5035642;28;20033;-58
2021/11/21 01:39:43;;;;;;;19.23;11.07;;;;;;;1.49;100.00;98630.91;5036570;28;20040;-59
2021/11/21 01:42:09;;;;;;;20.90;10.57;;;;;;;1.47;100.00;98622.47;5034771;28;20058;-59
2021/11/21 01:44:35;;;;;;;19.23;10.20;;;;;;;1.41;100.00;98613.09;5040257;28;20361;-58
2021/11/21 01:47:00;;;;;;;21.67;11.20;;;;;;;1.40;100.00;98603.81;5043169;28;20082;-59
2021/11/21 01:49:26;;;;;;;16.67;10.47;;;;;;;1.41;100.00;98599.63;5038894;28;20383;-59
2021/11/21 01:51:51;;;;;;;19.10;10.50;;;;;;;1.41;100.00;98602.16;5037717;28;20036;-57
2021/11/21 01:54:18;;;;;;;16.43;9.17;;;;;;;1.46;100.00;98598.88;5039079;28;20038;-57
2021/11/21 01:56:45;;;;;;;15.63;8.43;;;;;;;1.52;100.00;98601.53;5038073;28;20025;-59
2021/11/21 01:59:10;;;;;;;14.17;8.70;;;;;;;1.59;100.00;98589.81;5039427;28;20059;-59
2021/11/21 02:01:36;;;;;;;13.43;7.70;;;;;;;1.65;100.00;98592.47;5040658;28;20256;-56
2021/11/21 02:04:01;;;;;;;13.27;7.03;;;;;;;1.80;100.00;98591.00;5039376;28;20030;-57
2021/11/21 02:06:27;;;;;;;11.77;7.13;;;;;;;1.92;100.00;98586.94;5036963;28;20072;-58
2021/11/21 02:08:56;;;;;;;9.63;6.43;;;;;;;2.00;100.00;98582.84;5037309;28;20132;-57
2021/11/21 02:11:22;;;;;;;11.33;6.23;;;;;;;2.02;100.00;98581.19;5036334;28;20033;-57
2021/11/21 02:13:49;;;;;;;11.87;6.97;;;;;;;2.02;100.00;98568.56;5036881;28;20391;-56
2021/11/21 02:16:16;;;;;;;11.13;5.87;;;;;;;2.10;100.00;98566.97;5036765;28;20025;-57
2021/11/21 02:18:41;;;;;;;8.87;5.97;;;;;;;2.08;100.00;98571.19;5036523;28;20029;-56
2021/11/21 02:21:07;;;;;;;12.70;6.27;;;;;;;2.06;100.00;98555.97;5042815;28;20029;-57
2021/11/21 02:23:32;;;;;;;11.50;7.13;;;;;;;2.13;100.00;98554.38;5037501;28;20075;-58
2021/11/21 02:25:58;;;;;;;9.60;6.20;;;;;;;2.19;100.00;98545.19;5040681;28;20036;-56
2021/11/21 02:28:23;;;;;;;10.47;5.23;;;;;;;2.21;100.00;98547.72;5040759;28;20453;-55
2021/11/21 02:30:51;;;;;;;11.80;6.00;;;;;;;2.24;100.00;98551.16;5043008;28;20215;-58
2021/11/21 02:33:19;;;;;;;12.83;7.50;;;;;;;2.32;100.00;98540.28;5039006;28;20029;-56
2021/11/21 02:35:47;;;;;;;13.20;6.50;;;;;;;2.43;100.00;98541.25;5035407;28;20018;-58
2021/11/21 02:38:15;;;;;;;10.23;5.87;;;;;;;2.47;100.00;98543.84;5039726;28;20267;-57
2021/11/21 02:40:41;;;;;;;12.63;7.07;;;;;;;2.50;100.00;98540.50;5042221;28;20112;-58
2021/11/21 02:43:07;;;;;;;11.73;6.10;;;;;;;2.59;100.00;98543.97;5035867;28;20038;-56
2021/11/21 02:45:32;;;;;;;11.47;7.53;;;;;;;2.63;100.00;98532.22;5039476;28;20617;-55
2021/11/21 02:47:58;;;;;;;9.97;6.33;;;;;;;2.64;100.00;98519.56;5040321;28;20029;-57
2021/11/21 02:50:24;;;;;;;11.67;6.30;;;;;;;2.78;100.00;98524.78;5041015;28;20064;-58
2021/11/21 02:52:51;;;;;;;10.83;5.93;;;;;;;2.83;100.00;98522.28;5038029;28;20152;-58
2021/11/21 02:55:18;;;;;;;9.60;6.27;;;;;;;2.82;100.00;98521.44;5038740;28;20578;-53
2021/11/21 02:57:43;;;;;;;8.00;5.67;;;;;;;2.81;100.00;98513.81;5039855;28;20371;-58
2021/11/21 03:00:12;;;;;;;9.27;5.57;;;;;;;2.87;100.00;98514.75;5038527;28;20038;-58
2021/11/21 03:02:42;;;;;;;7.20;5.47;;;;;;;3.00;100.00;98515.69;5037007;28;20025;-57
2021/11/21 03:05:08;;;;;;;10.43;5.50;;;;;;;3.04;100.00;98517.44;5038108;28;20360;-58
2021/11/21 03:07:34;;;;;;;8.20;5.50;;;;;;;3.09;100.00;98515.78;5041427;28;20029;-55
2021/11/21 03:09:59;;;;;;;9.40;5.60;;;;;;;3.16;100.00;98513.31;5037737;28;20100;-58
2021/11/21 03:12:25;;;;;;;8.27;5.10;;;;;;;3.17;100.00;98511.63;5035511;28;20040;-55
2021/11/21 03:14:51;;;;;;;8.90;5.80;;;;;;;3.20;100.00;98499.84;5039372;28;20033;-56
2021/11/21 03:17:19;;;;;;;7.23;4.40;;;;;;;3.22;100.00;98503.22;5039490;28;20112;-58
2021/11/21 03:19:44;;;;;;;8.67;4.73;;;;;;;3.31;100.00;98499.09;5038688;28;20037;-58
2021/11/21 03:22:10;;;;;;;7.90;4.87;;;;;;;3.31;100.00;98492.31;5036532;28;20431;-56
2021/11/21 03:24:35;;;;;;;8.13;5.13;;;;;;;3.31;100.00;98486.41;5037899;28;20037;-58
2021/11/21 03:27:01;;;;;;;7.90;5.10;;;;;;;3.35;100.00;98486.44;5037725;28;20079;-55
2021/11/21 03:29:27;;;;;;;7.70;5.23;;;;;;;3.40;100.00;98487.31;5038106;28;20037;-58
2021/11/21 03:31:52;;;;;;;6.67;4.43;;;;;;;3.41;100.00;98467.88;5040213;28;20546;-58
2021/11/21 03:34:18;;;;;;;9.03;5.00;;;;;;;3.48;100.00;98478.06;5037064;28;20029;-59
2021/11/21 03:36:43;;;;;;;7.80;5.53;;;;;;;3.51;100.00;98465.44;5038117;28;20036;-57
2021/11/21 03:39:09;;;;;;;12.10;7.00;;;;;;;3.57;100.00;98464.59;5036537;28;20424;-58
2021/11/21 03:41:36;;;;;;;10.03;6.03;;;;;;;3.65;100.00;98468.88;5039371;28;20147;-58
2021/11/21 03:44:02;;;;;;;9.80;5.40;;;;;;;3.79;100.00;98468.97;5032977;28;20033;-57
2021/11/21 03:46:28;;;;;;;5.83;4.40;;;;;;;3.71;100.00;98452.00;5035995;28;20051;-56
2021/11/21 03:48:53;;;;;;;8.53;4.40;;;;;;;3.75;100.00;98458.78;5034372;28;20022;-56
2021/11/21 03:51:19;;;;;;;6.27;4.50;;;;;;;3.79;100.00;98465.56;5037869;28;20055;-57
2021/11/21 03:53:44;;;;;;;6.53;4.20;;;;;;;3.79;100.00;98458.81;5039306;28;20379;-56
2021/11/21 03:56:10;;;;;;;6.70;4.40;;;;;;;3.86;100.00;98452.09;5036893;28;20383;-58
2021/11/21 03:58:36;;;;;;;8.90;5.03;;;;;;;3.89;100.00;98459.72;5035109;28;20028;-58
2021/11/21 04:01:01;;;;;;;7.10;5.20;;;;;;;3.93;100.00;98453.81;5035608;28;20028;-58
2021/11/21 04:03:27;;;;;;;6.13;4.43;;;;;;;3.97;100.00;98446.22;5037761;28;20120;-57
2021/11/21 04:05:52;;;;;;;6.50;4.27;;;;;;;4.00;100.00;98448.78;5037424;28;20163;-57
2021/11/21 04:08:18;;;;;;;7.43;4.50;;;;;;;4.02;100.00;98449.66;5036229;28;20376;-56
2021/11/21 04:10:43;;;;;;;8.23;4.53;;;;;;;4.07;100.00;98432.72;5034260;28;20060;-55
2021/11/21 04:13:10;;;;;;;6.60;4.83;;;;;;;4.11;100.00;98429.38;5037412;28;20025;-58
2021/11/21 04:15:36;;;;;;;8.00;5.73;;;;;;;4.11;100.00;98438.69;5035841;28;20055;-54
2021/11/21 04:18:01;;;;;;;5.57;4.20;;;;;;;4.14;100.00;98431.94;5034609;28;20350;-55
2021/11/21 04:20:28;;;;;;;9.40;5.00;;;;;;;4.16;100.00;98421.75;5033085;28;20134;-56
2021/11/21 04:22:53;;;;;;;7.03;4.90;;;;;;;4.24;100.00;98424.34;5038220;28;20099;-54
2021/11/21 04:25:19;;;;;;;8.00;5.37;;;;;;;4.30;100.00;98420.13;5034911;28;20045;-54
2021/11/21 04:27:44;;;;;;;8.43;5.50;;;;;;;4.30;100.00;98424.34;5035095;28;20113;-54
2021/11/21 04:30:13;;;;;;;7.80;5.13;;;;;;;4.34;100.00;98420.97;5033476;28;20091;-56
2021/11/21 04:32:39;;;;;;;9.97;6.57;;;;;;;4.38;100.00;98426.06;5038059;28;20036;-58
2021/11/21 04:35:07;;;;;;;8.03;5.27;;;;;;;4.43;100.00;98413.38;5034221;28;20132;-59
2021/11/21 04:37:33;;;;;;;9.47;5.77;;;;;;;4.46;100.00;98418.44;5034665;28;20109;-58
2021/11/21 04:39:59;;;;;;;9.67;5.80;;;;;;;4.46;100.00;98411.69;5037357;28;20033;-56
2021/11/21 04:42:24;;;;;;;7.60;4.77;;;;;;;4.50;100.00;98410.84;5036544;28;20371;-54
2021/11/21 04:44:50;;;;;;;7.30;5.60;;;;;;;4.50;100.00;98413.38;5040142;28;20423;-56
2021/11/21 04:47:15;;;;;;;8.23;5.60;;;;;;;4.56;100.00;98413.41;5035027;28;20034;-54
2021/11/21 04:49:41;;;;;;;8.90;5.57;;;;;;;4.56;100.00;98408.31;5036142;28;20360;-56
2021/11/21 04:52:07;;;;;;;8.00;5.37;;;;;;;4.56;100.00;98410.88;5035137;28;20581;-56
2021/11/21 04:54:32;;;;;;;6.80;4.77;;;;;;;4.60;100.00;98407.47;5035306;28;20145;-56
2021/11/21 04:56:58;;;;;;;7.47;5.73;;;;;;;4.59;100.00;98400.72;5033281;28;20057;-57
2021/11/21 04:59:23;;;;;;;7.33;5.50;;;;;;;4.61;100.00;98395.63;5042348;28;20391;-58
2021/11/21 05:01:49;;;;;;;8.33;5.00;;;;;;;4.62;100.00;98396.50;5041093;28;20037;-54
2021/11/21 05:04:15;;;;;;;6.87;5.23;;;;;;;4.64;100.00;98399.88;5044725;28;20158;-57
2021/11/21 05:06:41;;;;;;;9.13;5.70;;;;;;;4.48;100.00;98401.53;5043148;28;20036;-57
2021/11/21 05:09:06;;;;;;;7.53;5.67;;;;;;;4.46;100.00;98400.69;5043110;28;20036;-55
2021/11/21 05:11:32;;;;;;;7.80;5.27;;;;;;;4.45;100.00;98389.72;5047824;28;20491;-58
2021/11/21 05:13:59;;;;;;;8.00;5.90;;;;;;;4.48;100.00;98388.84;5039363;28;20119;-56
2021/11/21 05:16:25;;;;;;;10.83;5.50;;;;;;;4.49;100.00;98370.25;5040320;28;20030;-56
2021/11/21 05:18:50;;;;;;;6.47;5.33;;;;;;;4.48;100.00;98376.16;5040676;28;20025;-58
2021/11/21 05:21:16;;;;;;;7.50;5.43;;;;;;;4.41;100.00;98372.75;5042053;28;20029;-57
2021/11/21 05:23:41;;;;;;;8.90;5.93;;;;;;;4.37;100.00;98363.44;5038142;28;20021;-57
2021/11/21 05:26:07;;;;;;;8.30;6.13;;;;;;;4.41;100.00;98362.59;5043985;28;20047;-57
2021/11/21 05:28:32;;;;;;;8.93;5.37;;;;;;;4.42;100.00;98366.84;5043959;28;20029;-58
2021/11/21 05:30:57;;;;;;;8.30;5.73;;;;;;;4.42;100.00;98361.78;5044919;28;20493;-57
2021/11/21 05:33:23;;;;;;;8.17;5.83;;;;;;;4.42;100.00;98356.69;5038986;28;20040;-59
2021/11/21 05:35:48;;;;;;;9.30;6.23;;;;;;;4.40;100.00;98350.78;5039958;28;20033;-58
2021/11/21 05:38:14;;;;;;;6.50;4.40;;;;;;;4.44;100.00;98351.63;5044233;28;20047;-58
2021/11/21 05:40:39;;;;;;;7.40;4.97;;;;;;;4.49;100.00;98345.72;5043227;28;20040;-59
2021/11/21 05:43:05;;;;;;;8.30;5.80;;;;;;;4.54;100.00;98344.00;5041902;28;20037;-57
2021/11/21 05:45:30;;;;;;;6.90;4.90;;;;;;;4.57;100.00;98346.56;5040794;28;20045;-57
2021/11/21 05:47:57;;;;;;;7.10;5.10;;;;;;;4.61;100.00;98347.41;5043531;28;20109;-58
2021/11/21 05:50:22;;;;;;;6.93;5.20;;;;;;;4.59;100.00;98344.84;5040890;28;20328;-56
2021/11/21 05:52:49;;;;;;;7.87;5.47;;;;;;;4.63;100.00;98342.31;5037848;28;20029;-57
2021/11/21 05:55:17;;;;;;;6.57;5.03;;;;;;;4.66;100.00;98344.88;5039366;28;20036;-57
2021/11/21 05:57:43;;;;;;;5.90;4.80;;;;;;;4.65;100.00;98340.63;5040219;28;20025;-55
2021/11/21 06:00:12;;;;;;;7.17;5.33;;;;;;;4.69;100.00;98334.69;5041790;28;20553;-58
2021/11/21 06:02:38;;;;;;;7.10;4.97;;;;;;;4.70;100.00;98331.31;5040251;28;20110;-56
2021/11/21 06:05:05;;;;;;;6.37;5.03;;;;;;;4.68;100.00;98327.94;5039622;28;20186;-57
2021/11/21 06:07:30;;;;;;;6.60;4.30;;;;;;;4.71;100.00;98326.22;5045615;28;20036;-56
2021/11/21 06:09:56;;;;;;;7.70;5.07;;;;;;;4.69;100.00;98316.94;5037144;28;20029;-54
2021/11/21 06:12:21;;;;;;;6.17;5.13;;;;;;;4.67;100.00;98319.47;5038078;28;20367;-56
2021/11/21 06:14:46;;;;;;;8.40;5.63;;;;;;;4.67;100.00;98316.91;5038487;28;20033;-58
2021/11/21 06:17:12;;;;;;;7.70;5.20;;;;;;;4.58;100.00;98305.06;5041232;28;20105;-57
2021/11/21 06:19:39;;;;;;;8.67;4.77;;;;;;;4.68;100.00;98315.22;5039234;28;20502;-58
2021/11/21 06:22:05;;;;;;;10.27;5.50;;;;;;;4.68;100.00;98317.78;5034897;28;20078;-58
2021/11/21 06:24:30;;;;;;;7.37;4.90;;;;;;;4.66;100.00;98312.72;5037499;28;20032;-54
2021/11/21 06:26:56;;;;;;;8.43;5.20;;;;;;;4.68;100.00;98313.53;5038840;28;20033;-53
2021/11/21 06:29:23;;;;;;;7.30;5.97;;;;;;;4.69;100.00;98307.63;5036573;28;20435;-54
2021/11/21 06:31:49;;;;;;;9.80;5.77;;;;;;;4.75;100.00;98301.69;5038674;28;20112;-57
2021/11/21 06:34:16;;;;;;;7.87;5.60;;;;;;;4.72;100.00;98306.75;5037445;28;20258;-57
2021/11/21 06:36:42;;;;;;;7.57;5.43;;;;;;;4.69;100.00;98301.69;5040929;28;20025;-56
2021/11/21 06:39:08;;;;;;;10.17;6.53;;;;;;;4.73;100.00;98306.78;5041603;28;20524;-59
2021/11/21 06:41:35;;;;;;;7.37;5.30;;;;;;;4.77;100.00;98300.84;5036779;28;20096;-58
2021/11/21 06:44:01;;;;;;;7.83;5.60;;;;;;;4.78;100.00;98289.84;5043089;28;20052;-58
2021/11/21 06:46:26;;;;;;;8.40;5.67;;;;;;;4.75;100.00;98287.31;5041677;28;20044;-57
2021/11/21 06:48:52;;;;;;;7.10;4.93;;;;;;;4.69;100.00;98291.53;5040160;28;20033;-57
2021/11/21 06:51:17;;;;;;;8.13;5.30;;;;;;;4.75;100.00;98289.00;5040054;28;20057;-57
2021/11/21 06:53:46;;;;;;;8.17;5.70;;;;;;;4.76;100.00;98286.44;5043808;28;20017;-54
2021/11/21 06:56:11;;;;;;;7.67;5.50;;;;;;;4.74;100.00;98288.16;5039281;28;20570;-57
2021/11/21 06:58:37;;;;;;;8.53;5.33;;;;;;;4.80;100.00;98285.59;5037759;28;20021;-54
2021/11/21 07:01:02;;;;;;;8.03;4.93;;;;;;;4.88;100.00;98283.06;5038567;28;20040;-58
2021/11/21 07:03:28;;;;;;;9.00;5.57;;;;;;;4.94;100.00;98277.94;5036895;28;20053;-57
2021/11/21 07:05:53;;;;;;;12.40;6.53;;;;;;;5.00;100.00;98273.72;5038033;28;20042;-57
2021/11/21 07:08:19;;;;;;;9.57;7.07;;;;;;;5.03;100.00;98267.78;5034666;28;20033;-55
2021/11/21 07:10:44;;;;;;;11.23;7.73;;;;;;;4.94;100.00;98277.94;5034903;28;20550;-55
2021/11/21 07:13:09;;;;;;;11.90;7.90;;;;;;;4.95;100.00;98272.88;5037326;28;20033;-56
2021/11/21 07:15:35;;;;;;;11.47;7.73;;;;;;;5.00;100.00;98267.78;5036941;28;20417;-57
2021/11/21 07:18:00;;;;;;;17.07;9.47;;;;;;;5.14;100.00;98260.94;5035865;28;20136;-58
2021/11/21 07:20:26;;;;;;;17.70;10.10;;;;;;;5.05;100.00;98256.75;5033683;28;20423;-57
2021/11/21 07:22:53;;;;;;;23.87;11.00;;;;;;;5.00;100.00;98255.94;5040871;28;20686;-56
2021/11/21 07:25:21;;;;;;;20.10;9.93;;;;;;;5.15;100.00;98262.66;5041428;28;20029;-56
2021/11/21 07:27:48;;;;;;;19.03;10.73;;;;;;;5.06;100.00;98266.06;5035545;28;20025;-57
2021/11/21 07:30:17;;;;;;;20.67;11.83;;;;;;;5.12;100.00;98265.22;5040261;28;20048;-57
2021/11/21 07:32:44;;;;;;;20.53;11.10;;;;;;;5.13;100.00;98259.28;5035992;28;20083;-55
2021/11/21 07:35:11;;;;;;;21.80;11.80;;;;;;;5.08;100.00;98268.59;5036852;28;20029;-58
2021/11/21 07:37:37;;;;;;;19.67;11.23;;;;;;;5.04;100.00;98265.25;5035922;28;20030;-56
2021/11/21 07:40:04;;;;;;;17.93;10.67;;;;;;;5.04;100.00;98270.31;5035013;28;20033;-58
2021/11/21 07:42:30;;;;;;;22.40;11.80;;;;;;;5.03;100.00;98265.22;5037477;28;20364;-56
2021/11/21 07:44:55;;;;;;;24.73;12.47;;;;;;;4.97;100.00;98258.47;5033979;28;20108;-57
2021/11/21 07:47:21;;;;;;;24.43;12.90;;;;;;;4.99;100.00;98263.56;5035638;28;20055;-56
2021/11/21 07:49:46;;;;;;;23.03;12.30;;;;;;;4.94;100.00;98268.63;5037298;28;20052;-56
2021/11/21 07:52:12;;;;;;;22.53;12.10;;;;;;;5.17;100.00;98272.81;5036548;28;20041;-59
2021/11/21 07:54:37;;;;;;;23.70;12.27;;;;;;;5.07;100.00;98266.91;5033003;28;20362;-57
2021/11/21 07:57:03;;;;;;;27.13;13.33;;;;;;;5.15;100.00;98261.78;5034820;28;20103;-57
2021/11/21 07:59:28;;;;;;;22.30;11.57;;;;;;;5.08;100.00;98271.16;5038863;28;20039;-58
2021/11/21 08:01:54;;;;;;;21.90;11.93;;;;;;;5.24;100.00;98271.94;5039369;28;20033;-56
2021/11/21 08:04:20;;;;;;;22.60;11.67;;;;;;;5.23;100.00;98273.63;5033146;28;20107;-57
2021/11/21 08:06:45;;;;;;;22.37;13.03;;;;;;;5.27;100.00;98272.75;5035281;28;20021;-57
2021/11/21 08:09:11;;;;;;;21.60;10.60;;;;;;;5.21;100.00;98267.72;5037192;28;20029;-58
2021/11/21 08:11:37;;;;;;;19.60;10.93;;;;;;;5.30;100.00;98270.22;5039134;28;20087;-56
2021/11/21 08:14:02;;;;;;;19.20;10.73;;;;;;;5.34;100.00;98276.13;5035821;28;20033;-56
2021/11/21 08:16:28;;;;;;;21.20;10.63;;;;;;;5.43;100.00;98271.84;5037004;28;20033;-57
2021/11/21 08:18:53;;;;;;;23.50;10.80;;;;;;;5.48;100.00;98265.03;5036530;28;20037;-54
2021/11/21 08:21:19;;;;;;;16.67;9.93;;;;;;;5.47;100.00;98265.88;5037281;28;20032;-59
2021/11/21 08:23:44;;;;;;;18.03;9.17;;;;;;;5.34;100.00;98259.19;5033251;28;20036;-57
2021/11/21 08:26:10;;;;;;;18.40;9.57;;;;;;;5.36;100.00;98262.56;5035727;28;20480;-55
2021/11/21 08:28:38;;;;;;;17.17;9.30;;;;;;;5.34;100.00;98254.13;5035101;28;20033;-55
2021/11/21 08:31:04;;;;;;;20.97;10.30;;;;;;;5.30;100.00;98254.97;5038168;28;20504;-56
2021/11/21 08:33:29;;;;;;;20.87;11.27;;;;;;;5.43;100.00;98248.97;5034967;28;20094;-56
2021/11/21 08:35:55;;;;;;;19.13;10.07;;;;;;;5.53;100.00;98254.84;5034952;28;20108;-55
2021/11/21 08:38:20;;;;;;;18.03;9.77;;;;;;;5.52;100.00;98254.00;5038523;28;20041;-54
2021/11/21 08:40:46;;;;;;;19.93;10.93;;;;;;;5.60;100.00;98253.97;5035571;28;20037;-58
2021/11/21 08:43:12;;;;;;;20.30;10.17;;;;;;;5.49;100.00;98253.19;5035950;28;20037;-60
2021/11/21 08:45:37;;;;;;;16.63;10.13;;;;;;;5.50;100.00;98250.66;5033549;28;20084;-57
2021/11/21 08:48:03;;;;;;;20.73;10.63;;;;;;;5.51;100.00;98259.13;5034805;28;20044;-56
2021/11/21 08:50:29;;;;;;;17.40;9.83;;;;;;;5.75;100.00;98241.19;5034783;28;20994;-58
2021/11/21 08:52:55;;;;;;;18.20;10.03;;;;;;;5.77;100.00;98234.34;5034931;28;20061;-59
2021/11/21 08:55:21;;;;;;;15.83;9.40;;;;;;;5.90;100.00;98237.69;5037305;28;20495;-59
2021/11/21 08:57:46;;;;;;;17.17;8.97;;;;;;;5.77;100.00;98236.91;5038074;28;20044;-60
2021/11/21 09:00:13;;;;;;;19.13;10.33;;;;;;;5.73;100.00;98237.78;5034534;28;20130;-60
2021/11/21 09:02:40;;;;;;;14.53;9.37;;;;;;;5.70;100.00;98235.25;5032812;28;20043;-54
2021/11/21 09:05:07;;;;;;;14.80;8.83;;;;;;;5.53;100.00;98239.59;5031007;28;20030;-58
2021/11/21 09:07:37;;;;;;;13.53;8.40;;;;;;;5.51;100.00;98233.69;5037605;28;20057;-62
2021/11/21 09:10:04;;;;;;;15.10;9.47;;;;;;;5.52;100.00;98232.81;5033747;28;21012;-58
2021/11/21 09:12:30;;;;;;;16.03;9.27;;;;;;;5.58;100.00;98237.03;5033052;28;20849;-59
2021/11/21 09:14:55;;;;;;;14.93;9.03;;;;;;;5.60;100.00;98236.16;5034042;28;20041;-58
2021/11/21 09:17:21;;;;;;;17.97;10.30;;;;;;;5.73;100.00;98236.97;5038619;28;20032;-56
2021/11/21 09:19:46;;;;;;;15.63;9.03;;;;;;;5.75;100.00;98227.59;5036381;28;20738;-59
2021/11/21 09:22:12;;;;;;;16.33;8.97;;;;;;;5.88;100.00;98231.78;5033290;28;20025;-57
2021/11/21 09:24:37;;;;;;;18.43;10.43;;;;;;;6.05;100.00;98222.34;5032697;28;20036;-54
2021/11/21 09:27:03;;;;;;;15.93;10.30;;;;;;;6.02;100.00;98219.84;5038174;28;20216;-61
2021/11/21 09:29:28;;;;;;;17.67;10.67;;;;;;;5.73;100.00;98214.06;5037347;28;20028;-60
2021/11/21 09:31:53;;;;;;;17.37;9.73;;;;;;;5.72;100.00;98209.84;5038554;28;20050;-60
2021/11/21 09:34:19;;;;;;;15.00;9.80;;;;;;;5.80;100.00;98208.94;5035802;28;20374;-60
2021/11/21 09:36:45;;;;;;;17.10;9.93;;;;;;;6.03;100.00;98202.84;5039475;28;20777;-60
2021/11/21 09:39:11;;;;;;;17.70;9.70;;;;;;;6.16;100.00;98200.19;5037354;28;20467;-61
2021/11/21 09:41:38;;;;;;;16.60;10.10;;;;;;;6.37;100.00;98189.81;5040416;28;20060;-60
2021/11/21 09:44:04;;;;;;;16.00;9.40;;;;;;;6.47;100.00;98188.03;5036140;28;20088;-59
2021/11/21 09:46:29;;;;;;;17.23;10.03;;;;;;;6.63;100.00;98181.06;5039202;28;20429;-59
2021/11/21 09:48:55;;;;;;;18.27;9.90;;;;;;;6.70;100.00;98185.25;5035361;28;20047;-59
2021/11/21 09:51:21;;;;;;;14.43;9.37;;;;;;;6.93;100.00;98175.63;5034702;28;20025;-59
2021/11/21 09:53:48;;;;;;;15.67;9.13;;;;;;;7.09;100.00;98172.03;5041420;28;20084;-61
2021/11/21 09:56:15;;;;;;;17.13;10.03;;;;;;;7.27;100.00;98160.75;5043910;28;20033;-60
2021/11/21 09:58:41;;;;;;;15.27;9.80;;;;;;;7.29;100.00;98157.34;5037279;28;20081;-61
2021/11/21 10:01:06;;;;;;;16.30;9.73;;;;;;;7.17;100.00;98152.38;5037403;28;20857;-61
2021/11/21 10:03:44;;;;;;;15.87;10.10;;;;;;;7.09;100.00;98144.00;5038943;28;20379;-61
2021/11/21 10:06:09;;;;;;;14.17;9.30;;;;;;;7.03;100.00;98154.28;5038146;28;20044;-60
2021/11/21 10:08:49;;;;;;;14.23;8.67;;;;;;;6.97;100.00;98154.34;5036840;28;20021;-59
2021/11/21 10:11:16;;;;;;;14.87;9.67;;;;;;;6.95;100.00;98145.91;5036081;28;20036;-59
2021/11/21 10:13:47;;;;;;;14.27;9.50;;;;;;;7.06;100.00;98140.66;5038723;28;20087;-60
2021/11/21 10:16:19;;;;;;;18.63;11.33;;;;;;;7.13;100.00;98142.28;5040091;28;20160;-59
2021/11/21 10:18:50;;;;;;;15.67;9.97;;;;;;;7.33;100.00;98132.63;5037407;28;20036;-60
2021/11/21 10:21:17;;;;;;;12.20;8.90;;;;;;;7.45;100.00;98126.50;5039837;28;20042;-58
2021/11/21 10:23:45;;;;;;;17.20;9.40;;;;;;;7.54;100.00;98134.03;5039665;28;20234;-57
2021/11/21 10:26:21;;;;;;;17.47;10.27;;;;;;;6.66;100.00;98127.56;5038129;28;20411;-59
2021/11/21 10:28:47;;;;;;;15.13;9.17;;;;;;;6.87;100.00;98123.03;5038738;28;20031;-58
2021/11/21 10:31:16;;;;;;;12.57;8.60;;;;;;;7.03;100.00;98122.84;5043459;28;20901;-60
2021/11/21 10:33:50;;;;;;;16.70;9.57;;;;;;;7.29;100.00;98111.44;5041050;28;20032;-60
2021/11/21 10:36:22;;;;;;;13.20;8.80;;;;;;;7.46;100.00;98107.81;5038699;28;20036;-60
2021/11/21 10:38:56;;;;;;;13.30;7.67;;;;;;;7.64;100.00;98107.50;5035620;28;20120;-59
2021/11/21 10:41:27;;;;;;;15.90;8.97;;;;;;;7.73;100.00;98103.09;5040639;28;20040;-60
2021/11/21 10:44:04;;;;;;;14.27;9.10;;;;;;;7.70;100.00;98102.31;5040437;28;20033;-59
2021/11/21 10:46:29;;;;;;;14.53;8.47;;;;;;;7.71;100.00;98099.75;5035771;28;20081;-61
2021/11/21 10:49:14;;;;;;;32.67;20.80;;;;;;;7.68;100.00;98098.97;5039116;28;20131;-59
2021/11/21 10:51:40;;;;;;;45.47;28.80;;;;;;;7.76;100.00;98103.06;5034623;28;20041;-60
2021/11/21 10:54:30;;;;;;;40.97;23.77;;;;;;;7.89;100.00;98093.50;5034106;28;20037;-60
2021/11/21 10:56:58;;;;;;;18.70;12.03;;;;;;;7.82;100.00;98090.19;5034181;28;20033;-61
2021/11/21 10:59:41;;;;;;;17.23;10.47;;;;;;;7.96;100.00;98084.00;5037402;28;20030;-59
2021/11/21 11:02:28;;;;;;;15.67;9.73;;;;;;;8.06;100.00;98075.34;5039900;28;20029;-60
2021/11/21 11:05:08;;;;;;;18.43;11.53;;;;;;;8.19;100.00;98076.78;5037561;28;20044;-61
2021/11/21 11:07:57;;;;;;;15.47;10.90;;;;;;;8.21;100.00;98081.00;5040196;28;20086;-59
2021/11/21 11:10:25;;;;;;;17.00;9.43;;;;;;;8.28;100.00;98071.50;5037250;28;20032;-60
2021/11/21 11:12:51;;;;;;;16.93;10.30;;;;;;;8.31;100.00;98074.03;5037882;28;20060;-60
2021/11/21 11:15:18;;;;;;;17.87;10.63;;;;;;;8.07;100.00;98070.19;5040408;28;20039;-59
2021/11/21 11:17:44;;;;;;;14.00;9.83;;;;;;;8.10;100.00;98070.16;5041408;28;20029;-61
2021/11/21 11:20:13;;;;;;;14.20;8.90;;;;;;;7.81;100.00;98062.13;5037733;28;20097;-57
2021/11/21 11:22:40;;;;;;;15.30;9.07;;;;;;;7.96;100.00;98061.88;5035168;28;20474;-59
2021/11/21 11:25:19;;;;;;;16.93;10.43;;;;;;;7.82;100.00;98062.13;5038321;28;20038;-60